Flight Track Log - Related Links

Times and Time Zones

All times are in EDT time to prevent confusion due to time zone crossing. See the UAL1589 flight status page for this flight to view local times or setup timezone preferences in your user account.

Time Position Orientation Groundspeed Altitude Reporting Facility
EDT Latitude Longitude Course Direction KTS MPH feet Rate Location/Type
Sun 05:07:51 PM 26.0750 -80.1319 336° Northwest 165 190 800  Level Miami Center
Sun 05:08:28 PM 26.0800 -80.0953 81° East 215 247 1,600 1,891 Climbing Miami Center
Sun 05:09:23 PM 26.1003 -80.0286 71° East 261 300 3,700 1,623 Climbing Miami Center
Sun 05:10:30 PM 26.1881 -80.0286 360° North 306 352 4,900 766 Climbing Miami Center
Sun 05:10:57 PM 26.2042 -80.0500 310° West 274 315 4,900 197 Level Miami Center
Sun 05:11:00 PM 26.2100 -80.5994 293° West  Level FlightAware Approximate
Sun 05:11:31 PM 26.2133 -80.1081 280° West 266 306 5,100  Level Miami Center
Sun 05:11:57 PM 26.2275 -80.1317 304° West 275 316 5,700 2,618 Climbing Miami Center
Sun 05:12:00 PM 26.3008 -80.6587 336° Northwest  Level FlightAware Approximate
Sun 05:12:26 PM 26.2347 -80.1828 279° West 278 320 7,500  Level Miami Center
Sun 05:12:57 PM 26.2467 -80.2108 295° West 281 323 8,500 2,656 Climbing Miami Center
Sun 05:13:00 PM 26.3966 -80.7150 336° Northwest  Level FlightAware Approximate
Sun 05:13:27 PM 26.2475 -80.2689 271° West 276 318 10,200  Level Miami Center
Sun 05:13:57 PM 26.2550 -80.3014 284° West 309 356 10,600 1,533 Climbing Miami Center
Sun 05:14:57 PM 26.2708 -80.4178 279° West 347 399 12,500 2,150 Climbing Miami Center
Sun 05:15:57 PM 26.2831 -80.5156 278° West 358 412 14,900 1,941 Climbing Miami Center
Sun 05:22:16 PM 26.8418 -81.0515 323° Northwest 437 503 26,700 1,795 Climbing FlightAware ADS-B
Sun 05:23:35 PM 26.9705 -81.1585 323° Northwest 438 504 28,600 1,474 Climbing FlightAware ADS-B
Sun 05:24:10 PM 27.0260 -81.2047 323° Northwest 435 501 29,500 1,111 Climbing FlightAware ADS-B
Sun 05:24:56 PM 27.0995 -81.2660 323° Northwest 443 510 30,100 847 Climbing FlightAware ADS-B
Sun 05:25:35 PM 27.1675 -81.3230 323° Northwest 446 513 30,700 1,083 Climbing FlightAware ADS-B
Sun 05:26:08 PM 27.2214 -81.3681 323° Northwest 444 511 31,400 1,313 Climbing FlightAware ADS-B
Sun 05:26:39 PM 27.2717 -81.4102 323° Northwest 441 507 32,100 1,548 Climbing FlightAware ADS-B
Sun 05:27:10 PM 27.3195 -81.4503 323° Northwest 432 497 33,000 1,770 Climbing FlightAware ADS-B
Sun 05:27:40 PM 27.3687 -81.4916 323° Northwest 419 482 33,900 1,600 Climbing FlightAware ADS-B
Sun 05:28:10 PM 27.4151 -81.5305 323° Northwest 414 476 34,600 1,100 Climbing FlightAware ADS-B
Sun 05:28:40 PM 27.4617 -81.5695 323° Northwest 414 476 35,000 600 Climbing FlightAware ADS-B
Sun 05:29:20 PM 27.5233 -81.6214 323° Northwest 420 483 35,300 375 Climbing FlightAware ADS-B
Sun 05:30:00 PM 27.5864 -81.6750 323° Northwest 427 491 35,500 343 Climbing FlightAware ADS-B
Sun 05:30:30 PM 27.6335 -81.7149 323° Northwest 431 496 35,700 500 Climbing FlightAware ADS-B
Sun 05:31:00 PM 27.6801 -81.7543 323° Northwest 432 497 36,000 261 Climbing FlightAware ADS-B
Sun 05:31:39 PM 27.7433 -81.8077 323° Northwest 434 499 36,000  Level FlightAware ADS-B
Sun 05:32:09 PM 27.7928 -81.8496 323° Northwest 435 501 36,000  Level FlightAware ADS-B
Sun 05:32:40 PM 27.8429 -81.8922 323° Northwest 434 499 36,000  Level FlightAware ADS-B
Sun 05:33:10 PM 27.8890 -81.9314 323° Northwest 435 501 36,000  Level FlightAware ADS-B
Sun 05:33:41 PM 27.9383 -81.9733 323° Northwest 435 501 36,000  Level FlightAware ADS-B
Sun 05:34:31 PM 28.0200 -82.0435 322° Northwest 433 498 36,000  Level FlightAware ADS-B
Sun 05:35:11 PM 28.0825 -82.0996 322° Northwest 430 495 36,000  Level FlightAware ADS-B
Sun 05:35:51 PM 28.1453 -82.1558 322° Northwest 424 488 36,000  Level FlightAware ADS-B
Sun 05:36:31 PM 28.2060 -82.2100 322° Northwest 422 486 36,000  Level FlightAware ADS-B
Sun 05:37:20 PM 28.2809 -82.2769 322° Northwest 421 484 36,000  Level FlightAware ADS-B
Sun 05:37:51 PM 28.3283 -82.3192 322° Northwest 420 483 36,000  Level FlightAware ADS-B
Sun 05:38:21 PM 28.3672 -82.3542 321° Northwest 418 481 36,000  Level FlightAware ADS-B
Sun 05:38:59 PM 28.4329 -82.4132 322° Northwest 417 480 36,000  Level FlightAware ADS-B
Sun 05:40:01 PM 28.5150 -82.4871 322° Northwest 417 480 36,000  Level FlightAware ADS-B
Sun 05:40:36 PM 28.5764 -82.5421 322° Northwest 418 481 36,000  Level FlightAware ADS-B
Sun 05:41:18 PM 28.6275 -82.5922 322° Northwest 426 490 36,000  Level Jacksonville Center
Sun 05:42:18 PM 28.7258 -82.6794 322° Northwest 426 490 36,000  Level Jacksonville Center
Sun 05:43:18 PM 28.8156 -82.7600 322° Northwest 426 490 36,000  Level Jacksonville Center
Sun 05:44:18 PM 28.9033 -82.8403 321° Northwest 420 483 36,000 -50 Level Jacksonville Center
Sun 05:45:18 PM 28.9911 -82.9233 320° Northwest 415 478 35,900  Descending Jacksonville Center
Sun 05:46:18 PM 29.0806 -83.0019 322° Northwest 415 478 36,000 50 Climbing Jacksonville Center
Sun 05:47:18 PM 29.1683 -83.0853 320° Northwest 415 478 36,000  Level Jacksonville Center
Sun 05:48:18 PM 29.2578 -83.1664 322° Northwest 410 472 36,000  Level Jacksonville Center
Sun 05:49:18 PM 29.3475 -83.2475 322° Northwest 410 472 36,000  Level Jacksonville Center
Sun 05:50:18 PM 29.4347 -83.3289 321° Northwest 405 466 36,000  Level Jacksonville Center
Sun 05:51:18 PM 29.5244 -83.4106 322° Northwest 405 466 36,000 -50 Level Jacksonville Center
Sun 05:52:18 PM 29.6136 -83.4947 321° Northwest 405 466 35,900 -50 Descending Jacksonville Center
Sun 05:53:18 PM 29.7031 -83.5764 322° Northwest 405 466 35,900 50 Level Jacksonville Center
Sun 05:54:18 PM 29.7925 -83.6583 322° Northwest 405 466 36,000 50 Climbing Jacksonville Center
Sun 05:55:18 PM 29.8836 -83.7431 321° Northwest 405 466 36,000 -50 Level Jacksonville Center
Sun 05:56:18 PM 29.9728 -83.8278 321° Northwest 405 466 35,900 -50 Descending Jacksonville Center
Sun 05:57:18 PM 30.0517 -83.8981 322° Northwest 405 466 35,900 50 Level Jacksonville Center
Sun 05:58:18 PM 30.1408 -83.9831 321° Northwest 405 466 36,000 50 Climbing Jacksonville Center
Sun 05:59:18 PM 30.2319 -84.0706 320° Northwest 405 466 36,000  Level Jacksonville Center
Sun 06:00:18 PM 30.3228 -84.1536 322° Northwest 410 472 36,000  Level Jacksonville Center
Sun 06:01:18 PM 30.4222 -84.2489 320° Northwest 416 479 36,000 -50 Level Jacksonville Center
Sun 06:02:18 PM 30.5153 -84.3344 322° Northwest 422 486 35,900  Descending Jacksonville Center
Sun 06:03:18 PM 30.5744 -84.4344 305° West 417 480 36,000  Climbing Jacksonville Center
Sun 06:04:18 PM 30.6147 -84.5678 289° West 398 458 35,900  Descending Jacksonville Center
Sun 06:05:18 PM 30.6525 -84.6939 289° West 404 465 36,000 50 Climbing Jacksonville Center
Sun 06:06:18 PM 30.6944 -84.8228 291° West 415 478 36,000 -50 Level Jacksonville Center
Sun 06:07:18 PM 30.7322 -84.9517 289° West 415 478 35,900  Descending Jacksonville Center
Sun 06:08:18 PM 30.7697 -85.0806 289° West 421 484 36,000  Climbing Jacksonville Center
Sun 06:09:18 PM 30.8072 -85.2047 289° West 426 490 35,900  Descending Jacksonville Center
Sun 06:10:18 PM 30.8444 -85.3314 289° West 426 490 36,000 50 Climbing Jacksonville Center
Sun 06:11:18 PM 30.8836 -85.4583 290° West 426 490 36,000 -50 Level Jacksonville Center
Sun 06:12:18 PM 30.9206 -85.5903 288° West 426 490 35,900 -50 Descending Jacksonville Center
Sun 06:13:18 PM 30.9597 -85.7172 290° West 426 490 35,900 50 Level Jacksonville Center
Sun 06:14:18 PM 31.0006 -85.8469 290° West 426 490 36,000 50 Climbing Jacksonville Center
Sun 06:15:18 PM 31.0350 -85.9789 287° West 426 490 36,000  Level Jacksonville Center
Sun 06:16:18 PM 31.0697 -86.0964 289° West 432 497 36,000  Level Jacksonville Center
Sun 06:17:18 PM 31.1061 -86.2264 288° West 432 497 36,000  Level Jacksonville Center
Sun 06:18:18 PM 31.1422 -86.3586 288° West 426 490 36,000  Level Jacksonville Center
Sun 06:19:18 PM 31.1822 -86.4961 289° West 426 490 36,000  Level Jacksonville Center
Sun 06:20:18 PM 31.2203 -86.6189 290° West 420 483 36,000  Level Jacksonville Center
Sun 06:21:18 PM 31.2561 -86.7467 288° West 415 478 36,000  Level Jacksonville Center
Sun 06:23:09 PM 31.3225 -86.9614 290° West 386 444 36,000  Level Memphis Center
Sun 06:24:11 PM 31.3547 -87.0806 288° West 385 443 36,000  Level Memphis Center
Sun 06:25:13 PM 31.3892 -87.1986 289° West 385 443 36,000  Level Memphis Center
Sun 06:26:15 PM 31.4211 -87.3178 287° West 385 443 36,000  Level Memphis Center
Sun 06:27:22 PM 31.4656 -87.4642 290° West 386 444 36,000  Level Atlanta Center
Sun 06:28:22 PM 31.4956 -87.5822 287° West 386 444 36,000  Level Atlanta Center
Sun 06:29:22 PM 31.5317 -87.7056 289° West 386 444 36,000  Level Atlanta Center
Sun 06:31:24 PM 31.5939 -87.9411 287° West 392 451 36,000  Level Memphis Center
Sun 06:32:26 PM 31.6261 -88.0617 287° West 392 451 36,000  Level Memphis Center
Sun 06:33:28 PM 31.6592 -88.1817 288° West 392 451 36,000  Level Memphis Center
Sun 06:34:30 PM 31.6972 -88.3258 287° West 391 450 36,000  Level Memphis Center
Sun 06:35:33 PM 31.7297 -88.4461 288° West 390 449 36,000  Level Memphis Center
Sun 06:36:35 PM 31.7608 -88.5644 287° West 386 444 36,000  Level Memphis Center
Sun 06:37:37 PM 31.8236 -88.6717 305° West 409 471 36,000  Level Memphis Center
Sun 06:38:39 PM 31.9319 -88.7433 331° Northwest 441 507 36,000  Level Memphis Center
Sun 06:39:41 PM 32.0622 -88.8203 333° Northwest 452 520 36,000  Level Memphis Center
Sun 06:40:43 PM 32.1719 -88.8878 332° Northwest 452 520 36,000  Level Memphis Center
Sun 06:41:45 PM 32.2825 -88.9558 333° Northwest 452 520 36,000  Level Memphis Center
Sun 06:42:47 PM 32.3975 -89.0256 333° Northwest 460 529 36,000  Level Memphis Center
Sun 06:43:49 PM 32.4542 -89.1389 301° West 419 482 36,000  Level Memphis Center
Sun 06:44:51 PM 32.4944 -89.2894 288° West 404 465 36,000  Level Memphis Center
Sun 06:45:53 PM 32.5306 -89.4136 289° West 403 464 36,000  Level Memphis Center
Sun 06:46:55 PM 32.5650 -89.5381 288° West 402 463 36,000  Level Memphis Center
Sun 06:47:57 PM 32.5981 -89.6614 288° West 398 458 36,000  Level Memphis Center
Sun 06:48:59 PM 32.6317 -89.7844 288° West 396 456 36,000  Level Memphis Center
Sun 06:50:01 PM 32.6661 -89.9094 288° West 395 455 36,000  Level Memphis Center
Sun 06:51:03 PM 32.7078 -90.0600 288° West 396 456 36,000  Level Memphis Center
Sun 06:52:06 PM 32.7417 -90.1861 288° West 396 456 36,000  Level Memphis Center
Sun 06:53:08 PM 32.7750 -90.3114 288° West 397 457 36,000  Level Memphis Center
Sun 06:54:10 PM 32.8092 -90.4378 288° West 398 458 36,000  Level Memphis Center
Sun 06:55:12 PM 32.8428 -90.5633 288° West 399 459 36,000  Level Memphis Center
Sun 06:56:14 PM 32.8761 -90.6883 288° West 399 459 36,000  Level Memphis Center
Sun 06:57:16 PM 32.9172 -90.8397 288° West 400 460 36,000  Level Memphis Center
Sun 06:58:18 PM 32.9497 -90.9656 287° West 401 461 36,000  Level Memphis Center
Sun 06:59:20 PM 32.9828 -91.0911 287° West 401 461 36,000  Level Memphis Center
Sun 07:00:22 PM 33.0156 -91.2183 287° West 401 461 36,000  Level Memphis Center
Sun 07:01:24 PM 33.0492 -91.3453 288° West 401 461 36,000  Level Memphis Center
Sun 07:02:27 PM 33.0881 -91.4989 287° West 403 464 36,000  Level Memphis Center
Sun 07:03:29 PM 33.1214 -91.6256 287° West 403 464 36,000  Level Memphis Center
Sun 07:04:31 PM 33.1544 -91.7533 287° West 404 465 36,000  Level Memphis Center
Sun 07:05:33 PM 33.1867 -91.8828 287° West 405 466 36,000  Level Memphis Center
Sun 07:06:35 PM 33.2253 -92.0325 287° West 405 466 36,000  Level Memphis Center
Sun 07:07:37 PM 33.2564 -92.1622 286° West 405 466 36,000  Level Memphis Center
Sun 07:08:39 PM 33.2897 -92.2922 287° West 406 467 36,000  Level Memphis Center
Sun 07:09:51 PM 33.3292 -92.4475 287° West 408 470 36,000  Level Fort Worth Center
Sun 07:10:53 PM 33.3619 -92.5789 287° West 411 473 36,000  Level Fort Worth Center
Sun 07:11:55 PM 33.3942 -92.7106 286° West 411 473 36,000  Level Fort Worth Center
Sun 07:12:57 PM 33.4275 -92.8431 287° West 413 475 36,000  Level Fort Worth Center
Sun 07:13:50 PM 33.4597 -92.9781 286° West 416 479 36,000  Level Memphis Center
Sun 07:15:01 PM 33.4989 -93.1403 286° West 422 486 36,000  Level Fort Worth Center
Sun 07:16:03 PM 33.5317 -93.2747 286° West 422 486 36,000  Level Fort Worth Center
Sun 07:17:06 PM 33.5647 -93.4100 286° West 422 486 36,000  Level Fort Worth Center
Sun 07:18:08 PM 33.5964 -93.5461 286° West 424 488 36,000  Level Fort Worth Center
Sun 07:19:10 PM 33.6353 -93.7064 286° West 424 488 36,000  Level Fort Worth Center
Sun 07:20:12 PM 33.6669 -93.8406 286° West 423 487 36,000  Level Fort Worth Center
Sun 07:21:14 PM 33.6992 -93.9767 286° West 424 488 36,000  Level Fort Worth Center
Sun 07:22:16 PM 33.7308 -94.1133 286° West 428 493 36,000  Level Fort Worth Center
Sun 07:23:18 PM 33.7689 -94.2769 286° West 428 493 36,000  Level Fort Worth Center
Sun 07:24:20 PM 33.8008 -94.4142 286° West 428 493 36,000  Level Fort Worth Center
Sun 07:25:22 PM 33.8333 -94.5522 286° West 429 494 36,000  Level Fort Worth Center
Sun 07:26:25 PM 33.8644 -94.6914 285° West 430 495 36,000  Level Fort Worth Center
Sun 07:27:27 PM 33.8953 -94.8328 285° West 433 498 36,000  Level Fort Worth Center
Sun 07:28:29 PM 33.9342 -94.9983 286° West 433 498 36,000  Level Fort Worth Center
Sun 07:29:31 PM 33.9653 -95.1400 285° West 441 507 36,000  Level Fort Worth Center
Sun 07:30:33 PM 33.9978 -95.2808 286° West 442 509 36,000  Level Fort Worth Center
Sun 07:31:35 PM 34.0272 -95.4217 284° West 439 505 36,000  Level Fort Worth Center
Sun 07:32:37 PM 34.0600 -95.5625 286° West 439 505 36,000  Level Fort Worth Center
Sun 07:33:39 PM 34.0894 -95.7022 284° West 436 502 36,000  Level Fort Worth Center
Sun 07:34:41 PM 34.1442 -95.8511 294° West 440 506 36,000  Level Fort Worth Center
Sun 07:35:43 PM 34.2111 -95.9744 303° West 440 506 36,000  Level Fort Worth Center
Sun 07:36:45 PM 34.2781 -96.1003 303° West 441 507 36,000  Level Fort Worth Center
Sun 07:37:47 PM 34.3450 -96.2278 302° West 448 516 36,000  Level Fort Worth Center
Sun 07:38:50 PM 34.4244 -96.3750 303° West 437 503 36,000  Level Fort Worth Center
Sun 07:39:52 PM 34.4917 -96.5036 302° West 445 512 36,000  Level Fort Worth Center
Sun 07:40:54 PM 34.5594 -96.6319 303° West 450 518 36,000  Level Fort Worth Center
Sun 07:46:43 PM 34.9581 -97.3981 302° West 458 527 36,000  Level FlightAware ADS-B
Sun 07:47:23 PM 35.0065 -97.4919 302° West 459 528 36,000  Level FlightAware ADS-B
Sun 07:48:00 PM 35.0484 -97.5738 302° West 457 526 36,000  Level FlightAware ADS-B
Sun 07:49:06 PM 35.1136 -97.7039 302° West 455 524 36,000  Level Kansas City Center
Sun 07:50:07 PM 35.1822 -97.8372 302° West 455 524 36,000  Level Kansas City Center
Sun 07:51:15 PM 35.2500 -97.9708 302° West 458 527 36,000  Level Fort Worth Center
Sun 07:52:17 PM 35.3311 -98.1308 302° West 458 527 36,000  Level Fort Worth Center
Sun 07:53:19 PM 35.3972 -98.2639 301° West 458 527 36,000  Level Fort Worth Center
Sun 07:54:21 PM 35.4650 -98.3981 302° West 459 528 36,000  Level Fort Worth Center
Sun 07:55:23 PM 35.5344 -98.5389 301° West 459 528 36,000  Level Fort Worth Center
Sun 07:56:25 PM 35.6025 -98.6750 302° West 465 535 36,000  Level Fort Worth Center
Sun 07:57:22 PM 35.6697 -98.8106 301° West 463 533 36,000 -305 Level Kansas City Center
Sun 07:58:23 PM 35.7333 -98.9389 301° West 463 533 35,400 -871 Descending Kansas City Center
Sun 07:59:26 PM 35.7994 -99.0725 301° West 462 532 34,200 -1,355 Descending Kansas City Center
Sun 08:00:27 PM 35.8589 -99.1908 302° West 417 480 32,600 -1,835 Descending Kansas City Center
Sun 08:01:27 PM 35.9181 -99.3153 300° West 423 487 30,500 -2,112 Descending Kansas City Center
Sun 08:02:32 PM 35.9906 -99.4656 301° West 446 513 28,200 -2,064 Descending Kansas City Center
Sun 08:03:32 PM 36.0539 -99.5936 301° West 442 509 26,200 -1,073 Descending Kansas City Center
Sun 08:04:35 PM 36.1111 -99.7133 301° West 415 478 26,000 -97 Descending Kansas City Center
Sun 08:05:36 PM 36.1678 -99.8325 301° West 404 465 26,000  Level Kansas City Center
Sun 08:06:39 PM 36.2258 -99.9517 301° West 404 465 26,000  Level Kansas City Center
Sun 08:07:39 PM 36.2958 -100.0972 301° West 407 468 26,000  Level Kansas City Center
Sun 08:08:42 PM 36.3550 -100.2250 300° West 422 486 26,000  Level Kansas City Center
Sun 08:09:43 PM 36.4158 -100.3508 301° West 422 486 26,000  Level Kansas City Center
Sun 08:10:44 PM 36.4800 -100.4883 300° West 422 486 26,000  Level Kansas City Center
Sun 08:11:48 PM 36.5386 -100.6108 301° West 426 490 26,000  Level Kansas City Center
Sun 08:12:50 PM 36.5956 -100.7353 300° West 427 491 26,000  Level Kansas City Center
Sun 08:13:52 PM 36.6633 -100.8831 300° West 434 499 26,000  Level Kansas City Center
Sun 08:14:52 PM 36.7228 -101.0050 301° West 433 498 26,000  Level Kansas City Center
Sun 08:15:54 PM 36.8203 -101.1086 320° Northwest 417 480 26,000  Level Kansas City Center
Sun 08:16:55 PM 36.9044 -101.1947 321° Northwest 414 476 26,000  Level Kansas City Center
Sun 08:17:58 PM 37.0039 -101.2931 322° Northwest 409 471 26,000  Level Kansas City Center
Sun 08:19:00 PM 37.0886 -101.3786 321° Northwest 409 471 26,000  Level Kansas City Center
Sun 08:20:02 PM 37.1739 -101.4636 322° Northwest 409 471 26,000  Level Kansas City Center
Sun 08:21:03 PM 37.2731 -101.5633 321° Northwest 409 471 26,000  Level Kansas City Center
Sun 08:22:07 PM 37.3567 -101.6489 321° Northwest 406 467 26,000  Level Kansas City Center
Sun 08:23:08 PM 37.4556 -101.7492 321° Northwest 406 467 26,000  Level Kansas City Center
Sun 08:24:09 PM 37.5403 -101.8333 322° Northwest 406 467 26,000  Level Kansas City Center
Sun 08:25:10 PM 37.6394 -101.9358 321° Northwest 407 468 26,000  Level Kansas City Center
Sun 08:26:14 PM 37.7253 -102.0233 321° Northwest 411 473 26,000  Level Kansas City Center
Sun 08:27:14 PM 37.8114 -102.1125 321° Northwest 412 474 26,000  Level Kansas City Center
Sun 08:28:18 PM 37.9033 -102.2300 315° West 416 479 26,000  Level Kansas City Center
Sun 08:29:18 PM 37.9814 -102.3350 313° West 424 488 26,000  Level Kansas City Center
Sun 08:30:19 PM 38.0700 -102.4586 312° West 424 488 26,000  Level Kansas City Center
Sun 08:37:03 PM 38.6043 -103.1942 312° West 427 491 26,000  Level FlightAware ADS-B (KEIK)
Sun 08:37:38 PM 38.6587 -103.2703 312° West 427 491 26,000  Level FlightAware ADS-B (KEIK)
Sun 08:38:09 PM 38.6995 -103.3276 312° West 426 490 26,000  Level FlightAware ADS-B (KEIK)
Sun 08:38:47 PM 38.7485 -103.3964 312° West 424 488 26,000  Level FlightAware ADS-B
Sun 08:39:28 PM 38.8036 -103.4739 312° West 424 488 26,000  Level FlightAware ADS-B (KEIK)
Sun 08:40:04 PM 38.8461 -103.5339 312° West 423 487 26,000  Level FlightAware ADS-B (KEIK)
Sun 08:40:35 PM 38.8901 -103.5960 312° West 421 484 26,000 -400 Level FlightAware ADS-B (KEIK)
Sun 08:41:19 PM 38.9503 -103.6811 312° West 416 479 25,500 -1,378 Descending FlightAware ADS-B (KEIK)
Sun 08:41:49 PM 38.9876 -103.7339 312° West 405 466 24,300 -2,571 Descending FlightAware ADS-B (KEIK)
Sun 08:42:29 PM 39.0370 -103.8044 312° West 397 457 22,500 -2,000 Descending FlightAware ADS-B
Sun 08:43:13 PM 39.0870 -103.8755 312° West 370 426 21,500 -1,280 Descending FlightAware ADS-B
Sun 08:43:44 PM 39.1203 -103.9232 312° West 348 400 20,900 -1,574 Descending FlightAware ADS-B (KEIK)
Sun 08:44:14 PM 39.1558 -103.9740 312° West 340 391 19,900 -1,895 Descending FlightAware ADS-B (KEIK)
Sun 08:45:00 PM 39.2033 -104.0423 312° West 329 379 18,500 -1,341 Descending FlightAware ADS-B (KEIK)
Sun 08:45:39 PM 39.2402 -104.0953 312° West 299 344 18,000 -917 Descending FlightAware ADS-B (KEIK)
Sun 08:46:12 PM 39.2639 -104.1407 292° West 288 331 17,400 -1,324 Descending FlightAware ADS-B
Sun 08:46:47 PM 39.2780 -104.2017 286° West 283 326 16,500 -1,385 Descending FlightAware ADS-B (KEIK)
Sun 08:47:17 PM 39.2884 -104.2474 286° West 273 314 15,900 -787 Descending FlightAware ADS-B
Sun 08:47:48 PM 39.2988 -104.2931 286° West 253 291 15,700 -667 Descending FlightAware ADS-B (KEIK)
Sun 08:48:20 PM 39.3083 -104.3352 286° West 242 278 15,200 -1,157 Descending FlightAware ADS-B (KEIK)
Sun 08:49:11 PM 39.3254 -104.4109 286° West 241 277 14,100 -913 Descending FlightAware ADS-B (KEIK)
Sun 08:49:52 PM 39.3373 -104.4640 286° West 238 274 13,800 -769 Descending FlightAware ADS-B
Sun 08:50:29 PM 39.3492 -104.5171 286° West 233 268 13,100 -1,244 Descending FlightAware ADS-B (KEIK)
Sun 08:51:14 PM 39.3621 -104.5748 288° West 234 269 12,100 -1,263 Descending FlightAware ADS-B
Sun 08:52:04 PM 39.3804 -104.6414 298° West 237 273 11,100 -1,114 Descending FlightAware ADS-B
Sun 08:52:24 PM 39.3960 -104.6604 334° Northwest 227 261 10,800 -774 Descending FlightAware ADS-B (KEIK)
Sun 08:52:35 PM 39.4063 -104.6628 353° North 222 255 10,700 -732 Descending FlightAware ADS-B (KEIK)
Sun 08:53:05 PM 39.4369 -104.6654 358° North 214 246 10,300 -1,091 Descending FlightAware ADS-B (KEIK)
Sun 08:53:08 PM 39.4407 -104.6656 359° North 213 245 10,100 -1,286 Descending FlightAware ADS-B
Sun 08:53:33 PM 39.4630 -104.6653 North 212 244 9,700 -1,149 Descending FlightAware ADS-B
Sun 08:53:55 PM 39.4857 -104.6646 North 214 246 9,200 -1,116 Descending FlightAware ADS-B
Sun 08:54:16 PM 39.5066 -104.6642 North 219 252 8,900 -429 Descending FlightAware ADS-B
Sun 08:54:37 PM 39.5264 -104.6641 North 215 247 8,900  Level FlightAware ADS-B
Sun 08:54:56 PM 39.5482 -104.6639 360° North 217 250 8,900  Level FlightAware ADS-B (KEIK)
Sun 08:55:01 PM 39.5513 -104.6639 North 217 250 8,900  Level FlightAware ADS-B
Sun 08:55:06 PM 39.5544 -104.6639 North 218 251 8,900  Level FlightAware ADS-B (KEIK)
Sun 08:55:24 PM 39.5760 -104.6636 North 214 246 8,900  Level FlightAware ADS-B
Sun 08:55:44 PM 39.5955 -104.6634 North 214 246 8,900  Level FlightAware ADS-B
Sun 08:56:06 PM 39.6163 -104.6630 North 217 250 8,900  Level FlightAware ADS-B
Sun 08:56:29 PM 39.6365 -104.6628 North 216 249 8,900 -545 Level FlightAware ADS-B
Sun 08:56:50 PM 39.6604 -104.6625 360° North 219 252 8,500 -1,161 Descending FlightAware ADS-B
Sun 08:57:00 PM 39.6648 -104.6625 North 219 252 8,300 -1,200 Descending FlightAware ADS-B (KEIK)
Sun 08:57:15 PM 39.6873 -104.6623 North 215 247 8,000 -1,125 Descending FlightAware ADS-B
Sun 08:57:32 PM 39.7043 -104.6620 North 205 236 7,700 -973 Descending FlightAware ADS-B (KEIK)
Sun 08:57:52 PM 39.7209 -104.6618 North 190 219 7,400 -900 Descending FlightAware ADS-B (KEIK)
Sun 08:58:12 PM 39.7388 -104.6616 North 174 200 7,100 -1,050 Descending FlightAware ADS-B (KEIK)
Sun 08:58:32 PM 39.7505 -104.6615 360° North 169 194 6,700 -977 Descending FlightAware ADS-B (KEIK)
Sun 08:58:55 PM 39.7711 -104.6614 North 168 193 6,400 -857 Descending FlightAware ADS-B (KEIK)
Sun 08:59:14 PM 39.7868 -104.6611 North 168 193 6,100 -938 Descending FlightAware ADS-B (KEIK)
Sun 08:59:27 PM 39.7936 -104.6610 North 166 191 5,900 -706 Descending FlightAware ADS-B (KEIK)
Sun 08:59:48 PM 39.8135 -104.6608 North 164 189 5,700 -732 Descending FlightAware ADS-B
Sun 09:00:08 PM 39.8278 -104.6606 North 167 192 5,400 -571 Descending FlightAware ADS-B
Sun 09:00:30 PM 39.8433 -104.6604 North 125 144 5,300 -273 Descending FlightAware ADS-B

Login

Don't have an account? Register now (free) for customized features, flight alerts, and more!